sensor_id;sensor_type;location;lat;lon;timestamp;pressure;altitude;pressure_sealevel;temperature;humidity
70971;BME280;58632;51.718;19.446;2022-09-29T00:01:49;98024.67;;;7.15;80.93
70971;BME280;58632;51.718;19.446;2022-09-29T00:04:15;98033.79;;;7.13;80.80
70971;BME280;58632;51.718;19.446;2022-09-29T00:06:41;98036.61;;;7.11;80.75
70971;BME280;58632;51.718;19.446;2022-09-29T00:09:07;98035.45;;;7.09;80.98
70971;BME280;58632;51.718;19.446;2022-09-29T00:11:32;98036.02;;;7.05;80.85
70971;BME280;58632;51.718;19.446;2022-09-29T00:13:58;98037.27;;;7.00;80.96
70971;BME280;58632;51.718;19.446;2022-09-29T00:16:24;98037.70;;;6.94;80.85
70971;BME280;58632;51.718;19.446;2022-09-29T00:18:53;98039.02;;;6.94;80.91
70971;BME280;58632;51.718;19.446;2022-09-29T00:21:19;98040.11;;;6.92;80.79
70971;BME280;58632;51.718;19.446;2022-09-29T00:23:46;98040.74;;;6.87;80.57
70971;BME280;58632;51.718;19.446;2022-09-29T00:28:49;98038.73;;;6.77;81.21
70971;BME280;58632;51.718;19.446;2022-09-29T00:31:17;98039.14;;;6.73;80.96
70971;BME280;58632;51.718;19.446;2022-09-29T00:33:43;98041.14;;;6.73;80.69
70971;BME280;58632;51.718;19.446;2022-09-29T00:36:15;98041.10;;;6.72;80.98
70971;BME280;58632;51.718;19.446;2022-09-29T00:38:43;98045.56;;;6.70;80.95
70971;BME280;58632;51.718;19.446;2022-09-29T00:41:15;98050.35;;;6.69;80.93
70971;BME280;58632;51.718;19.446;2022-09-29T00:49:00;98067.75;;;6.83;81.75
70971;BME280;58632;51.718;19.446;2022-09-29T00:51:28;98075.03;;;6.92;81.55
70971;BME280;58632;51.718;19.446;2022-09-29T00:53:55;98075.05;;;6.95;81.43
70971;BME280;58632;51.718;19.446;2022-09-29T00:56:22;98079.72;;;6.93;81.42
70971;BME280;58632;51.718;19.446;2022-09-29T00:58:59;98079.07;;;6.89;81.33
70971;BME280;58632;51.718;19.446;2022-09-29T01:01:29;98079.04;;;6.84;80.96
70971;BME280;58632;51.718;19.446;2022-09-29T01:03:58;98080.27;;;6.81;81.35
70971;BME280;58632;51.718;19.446;2022-09-29T01:06:30;98080.48;;;6.78;80.68
70971;BME280;58632;51.718;19.446;2022-09-29T01:09:03;98080.86;;;6.78;80.73
70971;BME280;58632;51.718;19.446;2022-09-29T01:11:30;98077.70;;;6.74;81.04
70971;BME280;58632;51.718;19.446;2022-09-29T01:13:59;98080.63;;;6.68;81.08
70971;BME280;58632;51.718;19.446;2022-09-29T01:16:29;98074.81;;;6.62;81.01
70971;BME280;58632;51.718;19.446;2022-09-29T01:18:56;98076.06;;;6.59;81.01
70971;BME280;58632;51.718;19.446;2022-09-29T01:30:07;98089.90;;;6.60;81.01
70971;BME280;58632;51.718;19.446;2022-09-29T01:32:46;98088.15;;;6.54;80.79
70971;BME280;58632;51.718;19.446;2022-09-29T01:38:14;98097.05;;;6.44;80.49
70971;BME280;58632;51.718;19.446;2022-09-29T01:40:58;98104.44;;;6.44;80.55
70971;BME280;58632;51.718;19.446;2022-09-29T01:46:20;98096.98;;;6.46;81.18
70971;BME280;58632;51.718;19.446;2022-09-29T01:48:51;98097.55;;;6.47;80.68
70971;BME280;58632;51.718;19.446;2022-09-29T01:51:44;98098.86;;;6.49;80.98
70971;BME280;58632;51.718;19.446;2022-09-29T01:54:16;98098.71;;;6.56;80.55
70971;BME280;58632;51.718;19.446;2022-09-29T01:56:59;98102.78;;;6.57;80.65
70971;BME280;58632;51.718;19.446;2022-09-29T01:59:44;98101.39;;;6.57;80.54
70971;BME280;58632;51.718;19.446;2022-09-29T02:02:16;98100.21;;;6.53;80.48
70971;BME280;58632;51.718;19.446;2022-09-29T02:04:53;98103.26;;;6.46;80.24
70971;BME280;58632;51.718;19.446;2022-09-29T02:07:28;98107.17;;;6.38;80.60
70971;BME280;58632;51.718;19.446;2022-09-29T02:10:02;98110.15;;;6.39;80.32
70971;BME280;58632;51.718;19.446;2022-09-29T02:12:31;98116.81;;;6.38;80.72
70971;BME280;58632;51.718;19.446;2022-09-29T02:14:59;98125.83;;;6.31;80.75
70971;BME280;58632;51.718;19.446;2022-09-29T02:17:32;98125.98;;;6.23;80.53
70971;BME280;58632;51.718;19.446;2022-09-29T02:20:02;98130.10;;;6.18;80.90
70971;BME280;58632;51.718;19.446;2022-09-29T02:22:28;98124.27;;;6.16;80.99
70971;BME280;58632;51.718;19.446;2022-09-29T02:24:56;98124.48;;;6.20;80.96
70971;BME280;58632;51.718;19.446;2022-09-29T02:27:26;98125.94;;;6.26;81.06
70971;BME280;58632;51.718;19.446;2022-09-29T02:29:53;98127.45;;;6.29;81.24
70971;BME280;58632;51.718;19.446;2022-09-29T02:32:19;98130.98;;;6.30;80.91
70971;BME280;58632;51.718;19.446;2022-09-29T02:34:47;98131.79;;;6.29;80.92
70971;BME280;58632;51.718;19.446;2022-09-29T02:40:01;98139.88;;;6.33;80.76
70971;BME280;58632;51.718;19.446;2022-09-29T02:53:41;98144.13;;;6.30;80.97
70971;BME280;58632;51.718;19.446;2022-09-29T02:58:56;98150.05;;;6.32;80.66
70971;BME280;58632;51.718;19.446;2022-09-29T03:01:24;98147.60;;;6.28;80.99
70971;BME280;58632;51.718;19.446;2022-09-29T03:03:50;98142.41;;;6.26;81.52
70971;BME280;58632;51.718;19.446;2022-09-29T03:06:17;98148.76;;;6.24;81.43
70971;BME280;58632;51.718;19.446;2022-09-29T03:08:44;98152.77;;;6.21;81.66
70971;BME280;58632;51.718;19.446;2022-09-29T03:11:10;98153.60;;;6.26;81.57
70971;BME280;58632;51.718;19.446;2022-09-29T03:13:36;98153.82;;;6.30;81.12
70971;BME280;58632;51.718;19.446;2022-09-29T03:16:02;98163.27;;;6.31;81.20
70971;BME280;58632;51.718;19.446;2022-09-29T03:18:28;98166.90;;;6.33;81.56
70971;BME280;58632;51.718;19.446;2022-09-29T03:20:54;98171.10;;;6.31;81.48
70971;BME280;58632;51.718;19.446;2022-09-29T03:23:20;98171.46;;;6.28;81.25
70971;BME280;58632;51.718;19.446;2022-09-29T03:25:45;98169.59;;;6.26;81.07
70971;BME280;58632;51.718;19.446;2022-09-29T03:28:11;98164.63;;;6.26;80.88
70971;BME280;58632;51.718;19.446;2022-09-29T03:30:37;98164.84;;;6.28;80.88
70971;BME280;58632;51.718;19.446;2022-09-29T03:33:03;98167.02;;;6.28;81.04
70971;BME280;58632;51.718;19.446;2022-09-29T03:35:29;98169.98;;;6.28;81.36
70971;BME280;58632;51.718;19.446;2022-09-29T03:37:59;98174.17;;;6.32;81.58
70971;BME280;58632;51.718;19.446;2022-09-29T03:40:25;98174.36;;;6.40;81.93
70971;BME280;58632;51.718;19.446;2022-09-29T03:42:51;98174.91;;;6.53;82.06
70971;BME280;58632;51.718;19.446;2022-09-29T03:45:17;98175.54;;;6.60;81.54
70971;BME280;58632;51.718;19.446;2022-09-29T03:47:43;98179.89;;;6.62;81.80
70971;BME280;58632;51.718;19.446;2022-09-29T03:50:09;98183.77;;;6.64;81.95
70971;BME280;58632;51.718;19.446;2022-09-29T03:52:35;98183.67;;;6.66;81.66
70971;BME280;58632;51.718;19.446;2022-09-29T03:55:01;98186.50;;;6.67;81.77
70971;BME280;58632;51.718;19.446;2022-09-29T03:57:27;98179.60;;;6.74;81.67
70971;BME280;58632;51.718;19.446;2022-09-29T03:59:53;98182.60;;;6.80;81.60
70971;BME280;58632;51.718;19.446;2022-09-29T04:02:18;98185.64;;;6.82;81.69
70971;BME280;58632;51.718;19.446;2022-09-29T04:04:45;98188.32;;;6.83;81.78
70971;BME280;58632;51.718;19.446;2022-09-29T04:07:11;98186.40;;;6.87;81.76
70971;BME280;58632;51.718;19.446;2022-09-29T04:09:37;98185.83;;;6.90;81.59
70971;BME280;58632;51.718;19.446;2022-09-29T04:12:03;98185.04;;;6.97;81.24
70971;BME280;58632;51.718;19.446;2022-09-29T04:14:29;98188.13;;;7.02;81.43
70971;BME280;58632;51.718;19.446;2022-09-29T04:16:55;98187.86;;;7.02;81.55
70971;BME280;58632;51.718;19.446;2022-09-29T04:19:21;98189.14;;;7.03;81.51
70971;BME280;58632;51.718;19.446;2022-09-29T04:21:47;98184.02;;;7.06;81.64
70971;BME280;58632;51.718;19.446;2022-09-29T04:24:13;98184.71;;;7.10;81.55
70971;BME280;58632;51.718;19.446;2022-09-29T04:26:38;98188.89;;;7.21;81.40
70971;BME280;58632;51.718;19.446;2022-09-29T04:29:04;98196.46;;;7.27;80.98
70971;BME280;58632;51.718;19.446;2022-09-29T04:31:30;98191.45;;;7.25;80.84
70971;BME280;58632;51.718;19.446;2022-09-29T04:33:56;98192.56;;;7.24;80.80
70971;BME280;58632;51.718;19.446;2022-09-29T04:36:22;98191.40;;;7.24;81.07
70971;BME280;58632;51.718;19.446;2022-09-29T04:38:48;98197.91;;;7.26;81.04
70971;BME280;58632;51.718;19.446;2022-09-29T04:41:16;98204.63;;;7.26;80.92
70971;BME280;58632;51.718;19.446;2022-09-29T04:43:42;98208.65;;;7.28;80.98
70971;BME280;58632;51.718;19.446;2022-09-29T04:46:09;98211.85;;;7.33;80.72
70971;BME280;58632;51.718;19.446;2022-09-29T04:48:35;98214.80;;;7.35;80.51
70971;BME280;58632;51.718;19.446;2022-09-29T04:51:03;98218.50;;;7.37;80.70
70971;BME280;58632;51.718;19.446;2022-09-29T04:53:29;98225.55;;;7.35;80.41
70971;BME280;58632;51.718;19.446;2022-09-29T04:55:55;98232.39;;;7.33;80.56
70971;BME280;58632;51.718;19.446;2022-09-29T04:58:21;98235.52;;;7.34;80.31
70971;BME280;58632;51.718;19.446;2022-09-29T05:00:47;98230.16;;;7.37;80.28
70971;BME280;58632;51.718;19.446;2022-09-29T05:03:13;98234.00;;;7.37;80.24
70971;BME280;58632;51.718;19.446;2022-09-29T05:05:39;98234.64;;;7.35;80.33
70971;BME280;58632;51.718;19.446;2022-09-29T05:08:05;98232.60;;;7.35;80.40
70971;BME280;58632;51.718;19.446;2022-09-29T05:10:31;98233.34;;;7.34;80.36
70971;BME280;58632;51.718;19.446;2022-09-29T05:12:57;98233.29;;;7.35;80.14
70971;BME280;58632;51.718;19.446;2022-09-29T05:15:23;98236.69;;;7.41;80.27
70971;BME280;58632;51.718;19.446;2022-09-29T05:17:49;98235.21;;;7.46;80.34
70971;BME280;58632;51.718;19.446;2022-09-29T05:20:15;98237.39;;;7.48;80.33
70971;BME280;58632;51.718;19.446;2022-09-29T05:22:41;98240.92;;;7.51;80.55
70971;BME280;58632;51.718;19.446;2022-09-29T05:25:08;98241.52;;;7.53;80.22
70971;BME280;58632;51.718;19.446;2022-09-29T05:27:35;98246.16;;;7.57;80.47
70971;BME280;58632;51.718;19.446;2022-09-29T05:30:02;98243.80;;;7.66;80.06
70971;BME280;58632;51.718;19.446;2022-09-29T05:32:28;98251.23;;;7.70;79.93
70971;BME280;58632;51.718;19.446;2022-09-29T05:34:55;98252.90;;;7.73;79.97
70971;BME280;58632;51.718;19.446;2022-09-29T05:37:21;98259.02;;;7.76;80.23
70971;BME280;58632;51.718;19.446;2022-09-29T05:39:47;98257.46;;;7.72;79.93
70971;BME280;58632;51.718;19.446;2022-09-29T05:42:12;98261.44;;;7.74;80.07
70971;BME280;58632;51.718;19.446;2022-09-29T05:44:38;98264.15;;;7.74;79.98
70971;BME280;58632;51.718;19.446;2022-09-29T05:47:04;98265.40;;;7.79;79.89
70971;BME280;58632;51.718;19.446;2022-09-29T05:49:30;98268.27;;;7.85;79.75
70971;BME280;58632;51.718;19.446;2022-09-29T05:51:58;98266.06;;;7.90;80.00
70971;BME280;58632;51.718;19.446;2022-09-29T05:54:24;98269.45;;;7.96;80.00
70971;BME280;58632;51.718;19.446;2022-09-29T05:56:52;98264.59;;;8.00;79.74
70971;BME280;58632;51.718;19.446;2022-09-29T05:59:18;98267.00;;;8.05;79.98
70971;BME280;58632;51.718;19.446;2022-09-29T06:01:44;98271.38;;;8.08;79.51
70971;BME280;58632;51.718;19.446;2022-09-29T06:04:10;98277.29;;;8.13;79.63
70971;BME280;58632;51.718;19.446;2022-09-29T06:06:36;98275.11;;;8.23;79.27
70971;BME280;58632;51.718;19.446;2022-09-29T06:09:05;98277.73;;;8.30;79.10
70971;BME280;58632;51.718;19.446;2022-09-29T06:11:31;98278.08;;;8.36;79.36
70971;BME280;58632;51.718;19.446;2022-09-29T06:13:57;98273.85;;;8.43;79.10
70971;BME280;58632;51.718;19.446;2022-09-29T06:16:25;98274.34;;;8.51;79.19
70971;BME280;58632;51.718;19.446;2022-09-29T06:18:52;98279.40;;;8.56;78.71
70971;BME280;58632;51.718;19.446;2022-09-29T06:21:22;98283.29;;;8.58;78.48
70971;BME280;58632;51.718;19.446;2022-09-29T06:23:49;98288.23;;;8.68;78.55
70971;BME280;58632;51.718;19.446;2022-09-29T06:26:17;98291.67;;;8.78;78.69
70971;BME280;58632;51.718;19.446;2022-09-29T06:28:43;98295.96;;;8.84;78.55
70971;BME280;58632;51.718;19.446;2022-09-29T06:31:14;98295.58;;;8.93;78.69
70971;BME280;58632;51.718;19.446;2022-09-29T06:33:41;98299.92;;;8.95;77.95
70971;BME280;58632;51.718;19.446;2022-09-29T06:36:12;98299.23;;;8.98;78.09
70971;BME280;58632;51.718;19.446;2022-09-29T06:38:59;98293.58;;;9.00;77.78
70971;BME280;58632;51.718;19.446;2022-09-29T06:41:26;98291.98;;;9.10;77.97
70971;BME280;58632;51.718;19.446;2022-09-29T06:43:53;98291.29;;;9.19;77.40
70971;BME280;58632;51.718;19.446;2022-09-29T06:46:19;98290.67;;;9.19;77.40
70971;BME280;58632;51.718;19.446;2022-09-29T06:48:45;98286.59;;;9.21;77.66
70971;BME280;58632;51.718;19.446;2022-09-29T06:51:11;98287.83;;;9.26;77.45
70971;BME280;58632;51.718;19.446;2022-09-29T06:53:38;98291.61;;;9.33;77.38
70971;BME280;58632;51.718;19.446;2022-09-29T06:56:04;98289.45;;;9.47;78.09
70971;BME280;58632;51.718;19.446;2022-09-29T06:58:30;98291.89;;;9.66;78.14
70971;BME280;58632;51.718;19.446;2022-09-29T07:00:59;98291.34;;;9.85;77.24
70971;BME280;58632;51.718;19.446;2022-09-29T07:03:27;98291.69;;;10.02;76.99
70971;BME280;58632;51.718;19.446;2022-09-29T07:05:52;98293.27;;;10.13;76.78
70971;BME280;58632;51.718;19.446;2022-09-29T07:08:18;98298.65;;;10.23;76.70
70971;BME280;58632;51.718;19.446;2022-09-29T07:10:45;98304.71;;;10.30;76.56
70971;BME280;58632;51.718;19.446;2022-09-29T07:13:11;98306.89;;;10.33;76.18
70971;BME280;58632;51.718;19.446;2022-09-29T07:15:37;98304.73;;;10.31;75.75
70971;BME280;58632;51.718;19.446;2022-09-29T07:18:04;98311.06;;;10.34;75.78
70971;BME280;58632;51.718;19.446;2022-09-29T07:20:30;98311.84;;;10.44;75.85
70971;BME280;58632;51.718;19.446;2022-09-29T07:22:57;98310.34;;;10.51;75.50
70971;BME280;58632;51.718;19.446;2022-09-29T07:25:23;98310.94;;;10.53;75.61
70971;BME280;58632;51.718;19.446;2022-09-29T07:27:49;98317.04;;;10.57;74.97
70971;BME280;58632;51.718;19.446;2022-09-29T07:30:17;98323.91;;;10.56;74.69
70971;BME280;58632;51.718;19.446;2022-09-29T07:32:43;98325.05;;;10.66;74.82
70971;BME280;58632;51.718;19.446;2022-09-29T07:35:09;98330.04;;;10.79;74.87
70971;BME280;58632;51.718;19.446;2022-09-29T07:37:35;98324.14;;;10.96;74.26
70971;BME280;58632;51.718;19.446;2022-09-29T07:40:01;98322.52;;;11.09;73.93
70971;BME280;58632;51.718;19.446;2022-09-29T07:42:27;98327.96;;;11.27;73.93
70971;BME280;58632;51.718;19.446;2022-09-29T07:44:54;98327.41;;;11.44;73.38
70971;BME280;58632;51.718;19.446;2022-09-29T07:47:20;98330.04;;;11.51;72.75
70971;BME280;58632;51.718;19.446;2022-09-29T07:49:46;98334.82;;;11.51;72.34
70971;BME280;58632;51.718;19.446;2022-09-29T07:52:13;98336.13;;;11.58;72.61
70971;BME280;58632;51.718;19.446;2022-09-29T07:54:39;98339.76;;;11.55;72.13
70971;BME280;58632;51.718;19.446;2022-09-29T07:57:05;98342.27;;;11.48;72.28
70971;BME280;58632;51.718;19.446;2022-09-29T07:59:31;98346.02;;;11.51;72.12
70971;BME280;58632;51.718;19.446;2022-09-29T08:01:57;98351.95;;;11.58;71.91
70971;BME280;58632;51.718;19.446;2022-09-29T08:04:22;98353.98;;;11.70;71.62
70971;BME280;58632;51.718;19.446;2022-09-29T08:06:49;98357.35;;;11.83;71.63
70971;BME280;58632;51.718;19.446;2022-09-29T08:09:15;98357.63;;;11.94;71.36
70971;BME280;58632;51.718;19.446;2022-09-29T08:11:41;98357.09;;;12.07;71.44
70971;BME280;58632;51.718;19.446;2022-09-29T08:14:08;98360.81;;;12.20;70.80
70971;BME280;58632;51.718;19.446;2022-09-29T08:16:37;98362.84;;;12.19;69.92
70971;BME280;58632;51.718;19.446;2022-09-29T08:19:04;98365.86;;;12.17;69.25
70971;BME280;58632;51.718;19.446;2022-09-29T08:21:30;98368.45;;;12.07;69.39
70971;BME280;58632;51.718;19.446;2022-09-29T08:24:02;98373.67;;;12.06;69.58
70971;BME280;58632;51.718;19.446;2022-09-29T08:26:35;98375.86;;;12.01;69.16
70971;BME280;58632;51.718;19.446;2022-09-29T08:29:02;98378.66;;;12.00;69.35
70971;BME280;58632;51.718;19.446;2022-09-29T08:31:28;98379.17;;;12.11;69.39
70971;BME280;58632;51.718;19.446;2022-09-29T08:33:56;98376.69;;;12.27;69.33
70971;BME280;58632;51.718;19.446;2022-09-29T08:36:25;98373.30;;;12.51;69.01
70971;BME280;58632;51.718;19.446;2022-09-29T08:38:53;98368.13;;;12.90;69.07
70971;BME280;58632;51.718;19.446;2022-09-29T08:41:39;98373.63;;;13.25;68.51
70971;BME280;58632;51.718;19.446;2022-09-29T08:46:51;98370.03;;;13.90;67.27
70971;BME280;58632;51.718;19.446;2022-09-29T08:49:23;98374.77;;;14.09;66.63
70971;BME280;58632;51.718;19.446;2022-09-29T08:51:53;98376.47;;;14.24;65.63
70971;BME280;58632;51.718;19.446;2022-09-29T08:54:28;98376.45;;;14.22;65.28
70971;BME280;58632;51.718;19.446;2022-09-29T08:56:56;98375.29;;;14.25;65.24
70971;BME280;58632;51.718;19.446;2022-09-29T08:59:23;98376.11;;;14.39;63.86
70971;BME280;58632;51.718;19.446;2022-09-29T09:07:43;98376.61;;;14.61;63.44
70971;BME280;58632;51.718;19.446;2022-09-29T09:13:05;98380.16;;;14.74;62.90
70971;BME280;58632;51.718;19.446;2022-09-29T09:18:59;98382.55;;;14.37;61.75
70971;BME280;58632;51.718;19.446;2022-09-29T09:21:40;98386.73;;;14.40;61.28
70971;BME280;58632;51.718;19.446;2022-09-29T09:27:10;98386.42;;;14.29;61.00
70971;BME280;58632;51.718;19.446;2022-09-29T09:29:41;98390.46;;;14.42;61.64
70971;BME280;58632;51.718;19.446;2022-09-29T09:32:11;98392.08;;;14.55;60.45
70971;BME280;58632;51.718;19.446;2022-09-29T09:34:42;98395.66;;;14.61;59.66
70971;BME280;58632;51.718;19.446;2022-09-29T09:40:03;98400.98;;;14.49;60.88
70971;BME280;58632;51.718;19.446;2022-09-29T09:42:34;98404.73;;;14.48;60.98
70971;BME280;58632;51.718;19.446;2022-09-29T09:45:22;98401.34;;;14.46;60.38
70971;BME280;58632;51.718;19.446;2022-09-29T09:50:24;98410.18;;;14.21;60.37
70971;BME280;58632;51.718;19.446;2022-09-29T09:55:24;98409.61;;;14.36;60.26
70971;BME280;58632;51.718;19.446;2022-09-29T10:00:35;98408.96;;;14.61;59.42
70971;BME280;58632;51.718;19.446;2022-09-29T10:03:05;98411.57;;;14.73;59.77
70971;BME280;58632;51.718;19.446;2022-09-29T10:08:23;98417.80;;;14.74;58.87
70971;BME280;58632;51.718;19.446;2022-09-29T10:10:51;98417.11;;;14.78;58.16
70971;BME280;58632;51.718;19.446;2022-09-29T10:13:17;98415.58;;;14.83;57.89
70971;BME280;58632;51.718;19.446;2022-09-29T10:18:55;98419.58;;;15.21;58.31
70971;BME280;58632;51.718;19.446;2022-09-29T10:23:58;98420.80;;;15.67;58.10
70971;BME280;58632;51.718;19.446;2022-09-29T10:28:54;98425.56;;;15.94;56.85
70971;BME280;58632;51.718;19.446;2022-09-29T10:31:25;98421.78;;;16.05;56.75
70971;BME280;58632;51.718;19.446;2022-09-29T10:39:50;98420.64;;;16.57;55.91
70971;BME280;58632;51.718;19.446;2022-09-29T10:42:37;98424.67;;;16.73;54.36
70971;BME280;58632;51.718;19.446;2022-09-29T10:47:29;98426.42;;;16.85;53.95
70971;BME280;58632;51.718;19.446;2022-09-29T10:50:18;98425.64;;;16.85;53.12
70971;BME280;58632;51.718;19.446;2022-09-29T10:55:25;98432.98;;;16.79;52.95
70971;BME280;58632;51.718;19.446;2022-09-29T10:57:54;98432.73;;;16.73;51.81
70971;BME280;58632;51.718;19.446;2022-09-29T11:02:51;98432.27;;;16.92;52.39
70971;BME280;58632;51.718;19.446;2022-09-29T11:05:21;98433.27;;;17.07;52.60
70971;BME280;58632;51.718;19.446;2022-09-29T11:07:52;98429.59;;;17.20;52.39
70971;BME280;58632;51.718;19.446;2022-09-29T11:10:29;98429.80;;;17.33;52.84
70971;BME280;58632;51.718;19.446;2022-09-29T11:12:55;98437.77;;;17.41;51.24
70971;BME280;58632;51.718;19.446;2022-09-29T11:15:28;98441.02;;;17.33;51.01
70971;BME280;58632;51.718;19.446;2022-09-29T11:18:21;98443.34;;;17.24;51.70
70971;BME280;58632;51.718;19.446;2022-09-29T11:20:56;98441.67;;;17.25;50.75
70971;BME280;58632;51.718;19.446;2022-09-29T11:23:34;98441.36;;;17.22;49.89
70971;BME280;58632;51.718;19.446;2022-09-29T11:26:18;98444.75;;;17.31;50.93
70971;BME280;58632;51.718;19.446;2022-09-29T11:29:16;98445.76;;;17.36;50.58
70971;BME280;58632;51.718;19.446;2022-09-29T11:34:18;98448.41;;;17.46;49.37
70971;BME280;58632;51.718;19.446;2022-09-29T11:45:00;98447.90;;;16.81;48.23
70971;BME280;58632;51.718;19.446;2022-09-29T11:55:59;98449.58;;;15.80;49.65
70971;BME280;58632;51.718;19.446;2022-09-29T12:04:12;98456.45;;;15.21;51.22
70971;BME280;58632;51.718;19.446;2022-09-29T12:10:26;98453.41;;;14.79;51.64
70971;BME280;58632;51.718;19.446;2022-09-29T12:15:11;98454.21;;;14.71;52.37
70971;BME280;58632;51.718;19.446;2022-09-29T12:17:46;98454.42;;;14.76;52.95
70971;BME280;58632;51.718;19.446;2022-09-29T12:20:40;98455.20;;;14.85;53.14
70971;BME280;58632;51.718;19.446;2022-09-29T12:23:11;98457.52;;;14.90;52.26
70971;BME280;58632;51.718;19.446;2022-09-29T12:28:46;98459.15;;;14.77;52.87
70971;BME280;58632;51.718;19.446;2022-09-29T12:31:34;98460.11;;;14.70;52.86
70971;BME280;58632;51.718;19.446;2022-09-29T12:34:31;98460.79;;;14.74;53.20
70971;BME280;58632;51.718;19.446;2022-09-29T12:39:52;98464.42;;;14.87;53.23
70971;BME280;58632;51.718;19.446;2022-09-29T12:51:08;98463.06;;;14.95;52.73
70971;BME280;58632;51.718;19.446;2022-09-29T12:53:41;98465.02;;;15.07;52.43
70971;BME280;58632;51.718;19.446;2022-09-29T12:56:54;98468.32;;;15.17;52.63
70971;BME280;58632;51.718;19.446;2022-09-29T12:59:06;98469.48;;;15.27;52.83
70971;BME280;58632;51.718;19.446;2022-09-29T13:01:38;98468.39;;;15.28;52.97
70971;BME280;58632;51.718;19.446;2022-09-29T13:21:53;98476.00;;;15.25;51.25
70971;BME280;58632;51.718;19.446;2022-09-29T13:29:48;98484.08;;;15.03;51.67
70971;BME280;58632;51.718;19.446;2022-09-29T13:32:15;98486.05;;;14.94;52.00
70971;BME280;58632;51.718;19.446;2022-09-29T13:34:47;98486.88;;;14.88;52.38
70971;BME280;58632;51.718;19.446;2022-09-29T13:37:18;98488.44;;;14.87;52.43
70971;BME280;58632;51.718;19.446;2022-09-29T13:39:57;98485.07;;;14.79;53.17
70971;BME280;58632;51.718;19.446;2022-09-29T13:47:46;98490.43;;;14.80;53.24
70971;BME280;58632;51.718;19.446;2022-09-29T13:50:41;98492.36;;;14.75;52.68
70971;BME280;58632;51.718;19.446;2022-09-29T13:58:53;98487.55;;;14.55;52.74
70971;BME280;58632;51.718;19.446;2022-09-29T14:01:35;98495.17;;;14.49;52.55
70971;BME280;58632;51.718;19.446;2022-09-29T14:04:43;98504.63;;;14.34;53.01
70971;BME280;58632;51.718;19.446;2022-09-29T14:07:10;98503.78;;;14.14;53.07
70971;BME280;58632;51.718;19.446;2022-09-29T14:09:41;98505.27;;;13.93;53.37
70971;BME280;58632;51.718;19.446;2022-09-29T14:12:19;98511.09;;;13.78;53.87
70971;BME280;58632;51.718;19.446;2022-09-29T14:14:53;98513.33;;;13.63;53.87
70971;BME280;58632;51.718;19.446;2022-09-29T14:17:36;98522.94;;;13.48;54.30
70971;BME280;58632;51.718;19.446;2022-09-29T14:33:18;98530.64;;;12.97;56.54
70971;BME280;58632;51.718;19.446;2022-09-29T14:38:39;98530.56;;;12.82;56.83
70971;BME280;58632;51.718;19.446;2022-09-29T14:49:44;98537.83;;;12.40;58.13
70971;BME280;58632;51.718;19.446;2022-09-29T14:58:03;98540.27;;;12.15;58.50
70971;BME280;58632;51.718;19.446;2022-09-29T15:00:43;98540.64;;;12.10;58.92
70971;BME280;58632;51.718;19.446;2022-09-29T15:03:26;98546.10;;;12.04;59.11
70971;BME280;58632;51.718;19.446;2022-09-29T15:06:17;98547.98;;;12.04;59.51
70971;BME280;58632;51.718;19.446;2022-09-29T15:09:00;98554.14;;;12.11;59.45
70971;BME280;58632;51.718;19.446;2022-09-29T15:11:35;98559.63;;;12.15;59.83
70971;BME280;58632;51.718;19.446;2022-09-29T15:14:26;98561.73;;;12.18;60.55
70971;BME280;58632;51.718;19.446;2022-09-29T15:25:29;98574.11;;;12.45;60.34
70971;BME280;58632;51.718;19.446;2022-09-29T15:30:25;98575.95;;;12.44;59.59
70971;BME280;58632;51.718;19.446;2022-09-29T15:32:52;98573.96;;;12.38;59.79
70971;BME280;58632;51.718;19.446;2022-09-29T15:35:23;98579.23;;;12.31;59.64
70971;BME280;58632;51.718;19.446;2022-09-29T15:40:21;98582.11;;;12.10;60.92
70971;BME280;58632;51.718;19.446;2022-09-29T15:42:49;98589.58;;;11.95;61.42
70971;BME280;58632;51.718;19.446;2022-09-29T15:45:22;98592.24;;;11.82;61.57
70971;BME280;58632;51.718;19.446;2022-09-29T15:47:57;98589.34;;;11.74;62.04
70971;BME280;58632;51.718;19.446;2022-09-29T15:50:25;98596.04;;;11.65;62.57
70971;BME280;58632;51.718;19.446;2022-09-29T15:52:52;98596.99;;;11.52;63.34
70971;BME280;58632;51.718;19.446;2022-09-29T15:55:21;98597.94;;;11.39;63.55
70971;BME280;58632;51.718;19.446;2022-09-29T15:57:48;98598.61;;;11.27;63.35
70971;BME280;58632;51.718;19.446;2022-09-29T16:05:41;98596.29;;;10.95;64.73
70971;BME280;58632;51.718;19.446;2022-09-29T16:08:16;98597.19;;;10.82;65.02
70971;BME280;58632;51.718;19.446;2022-09-29T16:10:54;98589.41;;;10.75;65.62
70971;BME280;58632;51.718;19.446;2022-09-29T16:13:23;98595.35;;;10.65;65.60
70971;BME280;58632;51.718;19.446;2022-09-29T16:15:56;98594.28;;;10.54;66.01
70971;BME280;58632;51.718;19.446;2022-09-29T16:18:32;98598.91;;;10.43;66.57
70971;BME280;58632;51.718;19.446;2022-09-29T16:21:08;98603.25;;;10.31;66.54
70971;BME280;58632;51.718;19.446;2022-09-29T16:23:40;98606.41;;;10.16;67.16
70971;BME280;58632;51.718;19.446;2022-09-29T16:28:58;98606.21;;;9.79;67.60
70971;BME280;58632;51.718;19.446;2022-09-29T16:31:22;98609.42;;;9.66;68.04
70971;BME280;58632;51.718;19.446;2022-09-29T16:33:53;98608.95;;;9.56;68.36
70971;BME280;58632;51.718;19.446;2022-09-29T16:36:25;98614.16;;;9.45;68.83
70971;BME280;58632;51.718;19.446;2022-09-29T16:38:52;98621.04;;;9.32;69.17
70971;BME280;58632;51.718;19.446;2022-09-29T16:46:48;98638.97;;;8.96;69.65
70971;BME280;58632;51.718;19.446;2022-09-29T16:49:21;98642.43;;;8.87;69.59
70971;BME280;58632;51.718;19.446;2022-09-29T16:51:49;98645.55;;;8.79;69.71
70971;BME280;58632;51.718;19.446;2022-09-29T16:54:24;98647.59;;;8.70;70.12
70971;BME280;58632;51.718;19.446;2022-09-29T16:57:32;98648.20;;;8.62;70.04
70971;BME280;58632;51.718;19.446;2022-09-29T17:00:11;98651.38;;;8.51;70.69